This is the latest recevied weather packets stored in our database for station/object KB1QVF. If no packets are shown the sender has not sent any weather packets the latest 10 day(s).
| Time | Temp. | Humidity | Pressure | Rain* | Wind** | Luminosity | Snow |
|---|---|---|---|---|---|---|---|
| 1777891196 | 6.67° C | 59% | 1013.9 hPa | 0 mm | - | 39 W/m² | - |
| 1777890895 | 6.11° C | 60% | 1014 hPa | 0 mm | - | 33 W/m² | - |
| 1777890592 | 6.11° C | 60% | 1013.9 hPa | 0 mm | - | 30 W/m² | - |
| 1777890287 | 5.56° C | 60% | 1013.8 hPa | 0 mm | - | 28 W/m² | - |
| 1777889984 | 5.56° C | 61% | 1013.9 hPa | 0 mm | - | 25 W/m² | - |
| 1777889682 | 5.56° C | 62% | 1013.7 hPa | 0 mm | - | 22 W/m² | - |
| 1777889378 | 5° C | 63% | 1013.8 hPa | 0 mm | - | 18 W/m² | - |
| 1777889076 | 5° C | 62% | 1013.9 hPa | 0 mm | - | 15 W/m² | - |
| 1777888773 | 5° C | 62% | 1013.8 hPa | 0 mm | - | 12 W/m² | - |
| 1777888470 | 5° C | 62% | 1013.5 hPa | 0 mm | - | 9 W/m² | - |
| 1777888166 | 4.44° C | 64% | 1013.6 hPa | 0 mm | - | 6 W/m² | - |
| 1777887863 | 3.89° C | 68% | 1013.5 hPa | 0 mm | - | 4 W/m² | - |
| 1777887560 | 3.89° C | 67% | 1013.5 hPa | 0 mm | - | 3 W/m² | - |
| 1777887255 | 3.89° C | 67% | 1013.6 hPa | 0 mm | - | 2 W/m² | - |
| 1777886952 | 3.89° C | 67% | 1013.5 hPa | 0 mm | - | 1 W/m² | - |
| 1777886648 | 3.89° C | 67% | 1013.7 hPa | 0 mm | - | 0 W/m² | - |
| 1777886345 | 2.78° C | 69% | 1013.4 hPa | 0 mm | - | 0 W/m² | - |
| 1777886043 | 2.78° C | 69% | 1013.3 hPa | 0 mm | - | 0 W/m² | - |
| 1777885741 | 2.78° C | 69% | 1013.7 hPa | 0 mm | - | 0 W/m² | - |
| 1777885438 | 3.33° C | 70% | 1013.6 hPa | 0 mm | - | 0 W/m² | - |
| 1777885138 | 3.33° C | 70% | 1013.4 hPa | 0 mm | - | 0 W/m² | - |
| 1777884834 | 3.33° C | 68% | 1013.4 hPa | 0 mm | - | 0 W/m² | - |
| 1777884530 | 3.89° C | 66% | 1013.1 hPa | 0 mm | - | 0 W/m² | - |
| 1777884228 | 3.89° C | 65% | 1013.4 hPa | 0 mm | - | 0 W/m² | - |
| 1777883923 | 4.44° C | 63% | 1013.3 hPa | 0 mm | - | 0 W/m² | - |
* Rain latest hour (hover to see other rain measurements)
** Current wind speed in m/s (hover to see current wind gust speed)